Country
Station

 

Weather  for  Gaylord, Otsego County Airport  -  United States    United States

  
13 °C (55 °F)
    
 
 

Current METAR for Gaylord, Otsego County Airport is :

KGLR 171053Z AUTO 00000KT 10SM CLR 13/12 A2998 RMK AO2 SLP151 T01330117

 

This is a report for Gaylord, Otsego County Airport - United States.
 
The report was made 14 minutes ago, at 10:53 UTC .
The wind was calm.
 
The temperature was 13 °C (55 °F), with a dew-point at 12 °C (54 °F).
The atmospheric pressure was 1015 hPa (29.98 inHg).
The relative humidity was 93.6%.
 
The sky was clear.
 
The overall visibility was 16.1 kilometers (10.0 miles).
 

 
 
 
 

Country :   A   B   C   D   E   F   G   H   I   J   K   L   M   N   O   P   Q   R   S   T   U   V   W   Y   Z

 

Site Info  |  Disclaimer  |  Credits  |  Privacy
Contact us  |  Add to favorites
© 2013-2018 METARs - All rights reserved